Flight Track Log - Related Links

Times and Time Zones

All times are in EDT time to prevent confusion due to time zone crossing. See the CES2376 flight status page for this flight to view local times or setup timezone preferences in your user account.

Time Position Orientation Groundspeed Altitude Reporting Facility
EDT Latitude Longitude Course Direction KTS MPH feet Rate Location/Type
Mon 04:59:00 AM 34.6103 107.9279 96° East  Level Estimated
Mon 05:00:00 AM 34.5834 108.0657 103° East  Level Estimated
Mon 05:01:00 AM 34.5564 108.2033 103° East  Level Estimated
Mon 05:02:00 AM 34.5292 108.3409 103° East  Level Estimated
Mon 05:03:00 AM 34.5019 108.4784 104° East  Level Estimated
Mon 05:04:00 AM 34.4744 108.6158 104° East  Level Estimated
Mon 05:05:00 AM 34.4471 108.7516 104° East  Level Estimated
Mon 05:06:00 AM 34.4471 108.7516 121° Southeast  Level Estimated
Mon 05:07:00 AM 34.4471 108.7516 121° Southeast  Level Estimated
Mon 05:08:00 AM 34.4471 108.7516 121° Southeast  Level Estimated
Mon 05:09:00 AM 34.4471 108.7516 121° Southeast  Level Estimated
Mon 05:10:00 AM 34.4471 108.7516 121° Southeast  Level Estimated
Mon 05:11:00 AM 34.4471 108.7516 121° Southeast  Level Estimated
Mon 05:12:00 AM 34.4471 108.7516 121° Southeast  Level Estimated
Mon 05:13:00 AM 34.4471 108.7516 121° Southeast  Level Estimated
Mon 05:14:00 AM 34.4471 108.7516 121° Southeast  Level Estimated
Mon 05:15:00 AM 34.4471 108.7516 121° Southeast  Level Estimated
Mon 05:16:00 AM 34.4471 108.7516 121° Southeast  Level Estimated
Mon 05:17:00 AM 34.4471 108.7516 121° Southeast  Level Estimated
Mon 05:18:00 AM 34.4471 108.7516 121° Southeast  Level Estimated
Mon 05:19:00 AM 34.4471 108.7516 121° Southeast  Level Estimated
Mon 05:20:00 AM 34.4471 108.7516 121° Southeast  Level Estimated
Mon 05:21:00 AM 34.4471 108.7516 121° Southeast  Level Estimated

Login

Don't have an account? Register now (free) for customized features, flight alerts, and more!